createdAt,value
2022-11-13T00:00:19.407Z,10.40
2022-11-13T00:03:05.028Z,10.40
2022-11-13T00:06:01.981Z,10.49
2022-11-13T00:08:48.108Z,10.36
2022-11-13T00:11:34.318Z,10.39
2022-11-13T00:14:20.930Z,10.33
2022-11-13T00:17:06.978Z,10.42
2022-11-13T00:19:52.952Z,10.58
2022-11-13T00:22:38.657Z,10.65
2022-11-13T00:25:25.109Z,10.77
2022-11-13T00:28:11.655Z,10.64
2022-11-13T00:31:00.429Z,10.73
2022-11-13T00:34:09.022Z,10.70
2022-11-13T00:36:52.600Z,10.58
2022-11-13T00:39:38.803Z,10.67
2022-11-13T00:42:24.646Z,10.62
2022-11-13T00:45:10.729Z,10.43
2022-11-13T00:47:56.881Z,10.25
2022-11-13T00:50:43.606Z,10.16
2022-11-13T00:53:29.756Z,10.12
2022-11-13T00:56:15.580Z,10.28
2022-11-13T00:59:01.906Z,10.35
2022-11-13T01:01:47.694Z,10.42
2022-11-13T01:04:34.159Z,10.46
2022-11-13T01:07:20.658Z,10.45
2022-11-13T01:10:07.845Z,10.55
2022-11-13T01:12:54.183Z,10.53
2022-11-13T01:15:41.691Z,10.45
2022-11-13T01:18:28.285Z,10.24
2022-11-13T01:21:18.433Z,10.18
2022-11-13T01:24:24.469Z,10.15
2022-11-13T01:27:10.814Z,10.13
2022-11-13T01:29:56.989Z,10.15
2022-11-13T01:32:42.945Z,10.38
2022-11-13T01:35:28.523Z,10.23
2022-11-13T01:38:15.486Z,10.13
2022-11-13T01:41:01.379Z,10.18
2022-11-13T01:43:48.485Z,10.16
2022-11-13T01:46:38.983Z,10.01
2022-11-13T01:49:34.449Z,10.10
2022-11-13T01:52:22.740Z,10.21
2022-11-13T01:55:14.311Z,9.95
2022-11-13T01:58:02.614Z,9.77
2022-11-13T02:00:48.695Z,9.51
2022-11-13T02:03:35.151Z,9.61
2022-11-13T02:06:21.993Z,9.75
2022-11-13T02:09:09.783Z,9.83
2022-11-13T02:11:56.038Z,10.02
2022-11-13T02:14:45.760Z,10.17
2022-11-13T02:17:35.903Z,10.19
2022-11-13T02:20:32.739Z,10.33
2022-11-13T02:23:30.527Z,10.20
2022-11-13T02:26:20.447Z,10.18
2022-11-13T02:29:06.346Z,9.83
2022-11-13T02:31:52.098Z,9.80
2022-11-13T02:34:38.454Z,10.00
2022-11-13T02:37:24.223Z,9.91
2022-11-13T02:40:10.383Z,9.86
2022-11-13T02:42:56.471Z,9.78
2022-11-13T02:45:42.594Z,9.76
2022-11-13T02:48:28.574Z,9.75
2022-11-13T02:51:15.190Z,9.82
2022-11-13T02:54:00.974Z,9.85
2022-11-13T02:56:46.952Z,9.92
2022-11-13T02:59:32.609Z,10.06
2022-11-13T03:02:18.506Z,9.84
2022-11-13T03:05:12.098Z,9.77
2022-11-13T03:07:59.670Z,9.94
2022-11-13T03:10:46.702Z,9.72
2022-11-13T03:13:32.315Z,9.86
2022-11-13T03:16:18.510Z,9.76
2022-11-13T03:19:04.674Z,9.80
2022-11-13T03:21:50.715Z,9.81
2022-11-13T03:24:36.702Z,9.63
2022-11-13T03:27:22.957Z,9.64
2022-11-13T03:30:09.325Z,9.63
2022-11-13T03:32:55.655Z,9.61
2022-11-13T03:35:46.757Z,9.64
2022-11-13T03:38:33.935Z,9.66
2022-11-13T03:41:21.154Z,9.70
2022-11-13T03:44:06.739Z,9.41
2022-11-13T03:46:52.983Z,9.47
2022-11-13T03:49:39.211Z,9.44
2022-11-13T03:52:25.468Z,9.25
2022-11-13T03:55:11.508Z,9.16
2022-11-13T03:57:59.762Z,9.41
2022-11-13T04:00:46.818Z,9.47
2022-11-13T04:03:33.340Z,9.27
2022-11-13T04:06:19.426Z,9.28
2022-11-13T04:09:05.462Z,8.92
2022-11-13T04:11:51.828Z,9.16
2022-11-13T04:14:37.547Z,9.22
2022-11-13T04:17:23.471Z,8.85
2022-11-13T04:20:10.205Z,8.81
2022-11-13T04:22:57.389Z,8.82
2022-11-13T04:25:42.971Z,8.87
2022-11-13T04:28:30.099Z,8.90
2022-11-13T04:31:16.912Z,8.93
2022-11-13T04:34:02.609Z,8.93
2022-11-13T04:36:48.343Z,8.94
2022-11-13T04:39:34.043Z,8.85
2022-11-13T04:42:38.928Z,8.73
2022-11-13T04:45:27.486Z,8.81
2022-11-13T04:48:13.357Z,8.94
2022-11-13T04:51:00.017Z,8.87
2022-11-13T04:53:45.768Z,8.77
2022-11-13T04:56:31.860Z,8.78
2022-11-13T04:59:44.024Z,8.54
2022-11-13T05:02:29.866Z,8.58
2022-11-13T05:05:15.501Z,8.53
2022-11-13T05:08:01.639Z,8.43
2022-11-13T05:10:47.937Z,8.19
2022-11-13T05:13:35.560Z,8.11
2022-11-13T05:16:21.618Z,8.27
2022-11-13T05:19:08.004Z,8.37
2022-11-13T05:21:53.858Z,8.28
2022-11-13T05:24:39.495Z,8.08
2022-11-13T05:27:25.302Z,8.28
2022-11-13T05:30:11.430Z,8.41
2022-11-13T05:32:57.543Z,8.49
2022-11-13T05:35:43.251Z,8.47
2022-11-13T05:38:30.014Z,8.51
2022-11-13T05:41:18.971Z,8.46
2022-11-13T05:44:04.608Z,8.36
2022-11-13T05:46:50.415Z,8.35
2022-11-13T05:50:15.889Z,8.26
2022-11-13T05:53:01.497Z,7.99
2022-11-13T05:55:47.163Z,7.89
2022-11-13T05:58:34.268Z,8.13
2022-11-13T06:01:23.553Z,8.04
2022-11-13T06:04:10.247Z,8.23
2022-11-13T06:06:56.193Z,8.41
2022-11-13T06:09:42.259Z,8.55
2022-11-13T06:12:29.467Z,8.81
2022-11-13T06:15:15.787Z,8.94
2022-11-13T06:18:02.146Z,8.83
2022-11-13T06:20:48.039Z,8.52
2022-11-13T06:23:53.873Z,8.51
2022-11-13T06:30:20.416Z,8.97
2022-11-13T06:33:06.123Z,8.90
2022-11-13T06:35:52.424Z,8.90
2022-11-13T06:38:39.588Z,8.85
2022-11-13T06:41:29.443Z,8.88
2022-11-13T06:44:15.031Z,8.81
2022-11-13T06:47:00.927Z,8.48
2022-11-13T06:49:47.264Z,7.95
2022-11-13T06:52:34.105Z,7.86
2022-11-13T06:55:20.078Z,7.76
2022-11-13T06:58:06.331Z,7.73
2022-11-13T07:00:52.139Z,8.02
2022-11-13T07:03:38.434Z,8.42
2022-11-13T07:06:25.028Z,8.39
2022-11-13T07:09:11.043Z,8.55
2022-11-13T07:11:56.879Z,8.43
2022-11-13T07:14:43.394Z,8.47
2022-11-13T07:17:29.907Z,8.69
2022-11-13T07:20:16.478Z,8.78
2022-11-13T07:23:04.837Z,8.43
2022-11-13T07:25:53.804Z,8.35
2022-11-13T07:28:59.928Z,8.04
2022-11-13T07:31:45.789Z,8.30
2022-11-13T07:34:31.505Z,8.30
2022-11-13T07:37:18.004Z,8.02
2022-11-13T07:40:05.661Z,8.22
2022-11-13T07:43:02.663Z,8.36
2022-11-13T07:45:54.334Z,8.44
2022-11-13T07:48:40.779Z,8.68
2022-11-13T07:51:26.755Z,8.61
2022-11-13T07:54:13.253Z,8.54
2022-11-13T07:57:20.803Z,8.89
2022-11-13T08:00:07.849Z,9.26
2022-11-13T08:02:54.160Z,9.46
2022-11-13T08:05:40.963Z,9.90
2022-11-13T08:08:27.414Z,10.04
2022-11-13T08:11:14.457Z,10.18
2022-11-13T08:14:00.680Z,10.49
2022-11-13T08:16:46.965Z,10.61
2022-11-13T08:19:33.692Z,10.66
2022-11-13T08:22:19.523Z,10.74
2022-11-13T08:25:05.543Z,10.91
2022-11-13T08:27:54.330Z,11.11
2022-11-13T08:31:01.235Z,11.26
2022-11-13T08:33:46.928Z,11.31
2022-11-13T08:36:52.827Z,11.38
2022-11-13T08:39:38.560Z,11.74
2022-11-13T08:42:24.496Z,11.92
2022-11-13T08:45:11.252Z,11.87
2022-11-13T08:48:01.406Z,11.87
2022-11-13T08:50:52.075Z,12.12
2022-11-13T08:53:37.702Z,12.01
2022-11-13T08:56:23.375Z,12.09
2022-11-13T08:59:10.474Z,12.19
2022-11-13T09:01:59.332Z,12.41
2022-11-13T09:04:45.387Z,12.61
2022-11-13T09:07:31.509Z,12.55
2022-11-13T09:10:18.235Z,12.87
2022-11-13T09:13:06.032Z,12.79
2022-11-13T09:15:52.277Z,12.70
2022-11-13T09:18:38.832Z,12.95
2022-11-13T09:21:24.780Z,13.00
2022-11-13T09:24:10.939Z,13.35
2022-11-13T09:26:57.008Z,13.45
2022-11-13T09:29:43.438Z,13.44
2022-11-13T09:32:29.239Z,13.61
2022-11-13T09:35:14.978Z,13.49
2022-11-13T09:38:10.967Z,13.91
2022-11-13T09:44:31.405Z,13.81
2022-11-13T09:47:31.514Z,13.94
2022-11-13T09:50:25.043Z,13.81
2022-11-13T09:53:14.072Z,14.02
2022-11-13T09:56:19.558Z,14.00
2022-11-13T09:59:08.043Z,14.17
2022-11-13T10:02:33.353Z,14.45
2022-11-13T10:05:23.504Z,14.51
2022-11-13T10:08:23.997Z,14.72
2022-11-13T10:11:17.723Z,14.91
2022-11-13T10:14:17.159Z,15.02
2022-11-13T10:17:15.316Z,15.30
2022-11-13T10:20:05.069Z,15.41
2022-11-13T10:22:59.330Z,15.44
2022-11-13T10:25:46.071Z,14.82
2022-11-13T10:31:50.807Z,15.64
2022-11-13T10:34:36.695Z,14.64
2022-11-13T10:37:44.366Z,15.40
2022-11-13T10:40:34.022Z,15.26
2022-11-13T10:43:24.629Z,14.81
2022-11-13T10:46:23.153Z,15.08
2022-11-13T10:49:21.042Z,16.07
2022-11-13T10:52:21.037Z,15.52
2022-11-13T10:55:36.704Z,14.66
2022-11-13T10:58:22.823Z,15.07
2022-11-13T11:01:34.857Z,15.05
2022-11-13T11:04:30.190Z,15.07
2022-11-13T11:07:24.017Z,14.83
2022-11-13T11:10:20.770Z,14.98
2022-11-13T11:13:11.637Z,15.80
2022-11-13T11:16:00.179Z,16.57
2022-11-13T11:18:53.740Z,16.82
2022-11-13T11:21:41.490Z,16.91
2022-11-13T11:24:39.022Z,16.92
2022-11-13T11:27:40.206Z,17.11
2022-11-13T11:30:39.340Z,17.35
2022-11-13T11:34:02.041Z,17.56
2022-11-13T11:36:54.014Z,17.77
2022-11-13T11:39:46.480Z,17.66
2022-11-13T11:42:47.662Z,17.01
2022-11-13T11:45:39.977Z,16.81
2022-11-13T11:48:34.468Z,16.91
2022-11-13T11:51:31.415Z,16.88
2022-11-13T11:54:40.932Z,16.70
2022-11-13T11:57:36.194Z,16.83
2022-11-13T12:00:22.663Z,16.40
2022-11-13T12:03:37.267Z,16.57
2022-11-13T12:06:57.731Z,16.81
2022-11-13T12:09:51.260Z,17.39
2022-11-13T12:13:11.309Z,18.24
2022-11-13T12:16:25.690Z,17.63
2022-11-13T12:19:38.733Z,17.43
2022-11-13T12:22:46.860Z,16.97
2022-11-13T12:25:51.488Z,17.19
2022-11-13T12:28:49.348Z,16.80
2022-11-13T12:31:39.321Z,16.67
2022-11-13T12:34:30.976Z,16.95
2022-11-13T12:37:24.268Z,16.70
2022-11-13T12:40:29.563Z,16.89
2022-11-13T12:43:18.237Z,16.80
2022-11-13T12:46:09.039Z,16.45
2022-11-13T12:48:54.906Z,16.44
2022-11-13T12:51:41.836Z,16.52
2022-11-13T12:54:33.023Z,16.62
2022-11-13T12:57:27.177Z,16.74
2022-11-13T13:00:28.815Z,16.69
2022-11-13T13:03:38.942Z,16.59
2022-11-13T13:07:04.319Z,16.57
2022-11-13T13:10:11.497Z,16.45
2022-11-13T13:13:48.654Z,16.37
2022-11-13T13:16:34.731Z,16.42
2022-11-13T13:19:32.910Z,16.63
2022-11-13T13:22:54.829Z,16.83
2022-11-13T13:25:41.426Z,16.93
2022-11-13T13:28:27.729Z,16.89
2022-11-13T13:31:20.564Z,17.14
2022-11-13T13:34:57.631Z,17.34
2022-11-13T13:38:01.133Z,17.19
2022-11-13T13:41:01.743Z,17.03
2022-11-13T13:44:13.523Z,16.93
2022-11-13T13:47:00.100Z,16.71
2022-11-13T13:49:46.068Z,16.78
2022-11-13T13:52:36.040Z,16.86
2022-11-13T13:55:50.506Z,16.79
2022-11-13T13:58:38.127Z,16.47
2022-11-13T14:01:32.964Z,16.21
2022-11-13T14:04:21.297Z,15.96
2022-11-13T14:07:19.770Z,15.61
2022-11-13T14:10:06.753Z,15.64
2022-11-13T14:12:52.821Z,15.57
2022-11-13T14:15:39.680Z,15.81
2022-11-13T14:18:27.366Z,15.86
2022-11-13T14:21:22.878Z,16.04
2022-11-13T14:24:35.016Z,16.06
2022-11-13T14:27:24.974Z,15.98
2022-11-13T14:30:23.029Z,16.14
2022-11-13T14:33:14.926Z,16.03
2022-11-13T14:36:01.928Z,15.93
2022-11-13T14:38:52.086Z,15.56
2022-11-13T14:41:41.268Z,15.57
2022-11-13T14:44:34.055Z,15.46
2022-11-13T14:47:26.997Z,15.27
2022-11-13T14:50:27.583Z,15.36
2022-11-13T14:53:13.834Z,15.41
2022-11-13T14:56:27.932Z,15.30
2022-11-13T14:59:19.861Z,15.29
2022-11-13T15:02:06.988Z,15.24
2022-11-13T15:04:53.425Z,15.19
2022-11-13T15:07:46.075Z,15.17
2022-11-13T15:10:32.183Z,15.05
2022-11-13T15:13:19.102Z,14.89
2022-11-13T15:16:05.225Z,14.82
2022-11-13T15:19:04.994Z,14.78
2022-11-13T15:22:20.385Z,14.71
2022-11-13T15:24:57.838Z,14.47
2022-11-13T15:27:44.394Z,14.62
2022-11-13T15:30:30.133Z,14.53
2022-11-13T15:33:16.683Z,14.36
2022-11-13T15:36:03.247Z,14.27
2022-11-13T15:38:49.641Z,14.16
2022-11-13T15:45:16.702Z,14.02
2022-11-13T15:48:03.374Z,13.91
2022-11-13T15:50:49.345Z,13.69
2022-11-13T15:53:35.919Z,13.61
2022-11-13T15:56:23.197Z,13.60
2022-11-13T15:59:12.743Z,13.47
2022-11-13T16:01:58.652Z,13.41
2022-11-13T16:04:56.124Z,13.37
2022-11-13T16:07:42.740Z,13.27
2022-11-13T16:10:28.515Z,13.21
2022-11-13T16:13:14.811Z,13.23
2022-11-13T16:16:01.061Z,13.08
2022-11-13T16:18:46.551Z,13.01
2022-11-13T16:21:32.621Z,12.93
2022-11-13T16:24:22.620Z,13.02
2022-11-13T16:27:14.682Z,12.91
2022-11-13T16:30:06.583Z,12.85
2022-11-13T16:32:54.655Z,12.69
2022-11-13T16:35:40.820Z,12.84
2022-11-13T16:38:26.366Z,12.85
2022-11-13T16:41:14.737Z,12.77
2022-11-13T16:44:00.946Z,12.68
2022-11-13T16:46:48.054Z,12.62
2022-11-13T16:49:34.199Z,12.68
2022-11-13T16:52:20.542Z,12.73
2022-11-13T16:55:07.173Z,12.54
2022-11-13T16:57:52.783Z,12.38
2022-11-13T17:00:39.851Z,12.30
2022-11-13T17:03:25.429Z,12.23
2022-11-13T17:06:32.101Z,12.19
2022-11-13T17:09:18.300Z,12.19
2022-11-13T17:12:05.003Z,12.08
2022-11-13T17:14:51.168Z,12.03
2022-11-13T17:17:37.911Z,12.05
2022-11-13T17:20:24.747Z,11.97
2022-11-13T17:23:15.530Z,11.88
2022-11-13T17:26:02.652Z,11.89
2022-11-13T17:28:48.320Z,11.92
2022-11-13T17:31:34.496Z,11.95
2022-11-13T17:34:20.097Z,11.97
2022-11-13T17:37:06.462Z,11.95
2022-11-13T17:39:52.421Z,11.95
2022-11-13T17:42:39.556Z,12.07
2022-11-13T17:45:25.128Z,12.01
2022-11-13T17:48:11.424Z,11.87
2022-11-13T17:50:59.130Z,11.77
2022-11-13T17:53:45.440Z,11.78
2022-11-13T17:56:32.395Z,11.81
2022-11-13T17:59:19.090Z,11.92
2022-11-13T18:02:04.822Z,12.01
2022-11-13T18:04:51.271Z,11.99
2022-11-13T18:07:38.122Z,11.92
2022-11-13T18:10:24.217Z,11.86
2022-11-13T18:13:10.654Z,11.81
2022-11-13T18:15:56.199Z,11.73
2022-11-13T18:18:42.526Z,11.40
2022-11-13T18:21:31.563Z,11.26
2022-11-13T18:24:19.063Z,11.18
2022-11-13T18:27:08.301Z,11.31
2022-11-13T18:29:56.299Z,11.42
2022-11-13T18:32:42.499Z,11.43
2022-11-13T18:35:28.148Z,11.50
2022-11-13T18:38:13.785Z,11.56
2022-11-13T18:41:05.677Z,11.48
2022-11-13T18:43:52.152Z,11.43
2022-11-13T18:46:38.795Z,11.40
2022-11-13T18:49:24.711Z,11.17
2022-11-13T18:52:11.177Z,11.20
2022-11-13T18:54:57.117Z,11.24
2022-11-13T18:57:42.870Z,11.23
2022-11-13T19:00:29.257Z,11.43
2022-11-13T19:03:15.610Z,11.60
2022-11-13T19:06:01.993Z,11.68
2022-11-13T19:08:53.982Z,11.68
2022-11-13T19:11:40.420Z,11.63
2022-11-13T19:14:26.138Z,11.31
2022-11-13T19:17:12.520Z,11.26
2022-11-13T19:19:58.361Z,11.17
2022-11-13T19:22:44.535Z,11.18
2022-11-13T19:25:31.205Z,11.10
2022-11-13T19:28:17.243Z,11.19
2022-11-13T19:31:11.295Z,11.15
2022-11-13T19:33:59.545Z,11.21
2022-11-13T19:36:46.391Z,11.31
2022-11-13T19:39:32.064Z,11.57
2022-11-13T19:42:18.583Z,11.66
2022-11-13T19:45:05.315Z,11.62
2022-11-13T19:47:51.563Z,11.55
2022-11-13T19:50:38.413Z,11.38
2022-11-13T19:53:24.584Z,11.26
2022-11-13T19:56:10.829Z,11.29
2022-11-13T19:58:57.198Z,11.43
2022-11-13T20:01:43.472Z,11.52
2022-11-13T20:04:29.728Z,11.73
2022-11-13T20:07:16.063Z,11.69
2022-11-13T20:10:03.141Z,11.67
2022-11-13T20:12:49.105Z,11.67
2022-11-13T20:15:35.598Z,11.64
2022-11-13T20:18:21.638Z,11.71
2022-11-13T20:21:07.771Z,11.73
2022-11-13T20:23:56.239Z,11.70
2022-11-13T20:26:43.435Z,11.72
2022-11-13T20:29:29.109Z,11.68
2022-11-13T20:32:15.476Z,11.73
2022-11-13T20:35:02.520Z,11.80
2022-11-13T20:37:48.874Z,11.82
2022-11-13T20:40:34.792Z,11.81
2022-11-13T20:43:21.179Z,11.84
2022-11-13T20:46:12.962Z,11.92
2022-11-13T20:48:59.510Z,11.88
2022-11-13T20:51:46.120Z,11.73
2022-11-13T20:54:32.053Z,11.65
2022-11-13T20:57:21.163Z,11.58
2022-11-13T21:00:08.228Z,11.68
2022-11-13T21:02:54.087Z,11.65
2022-11-13T21:05:40.375Z,11.62
2022-11-13T21:08:27.781Z,11.72
2022-11-13T21:11:21.967Z,11.83
2022-11-13T21:14:09.954Z,11.92
2022-11-13T21:16:55.831Z,11.79
2022-11-13T21:19:42.096Z,11.68
2022-11-13T21:22:27.962Z,11.69
2022-11-13T21:25:14.459Z,11.76
2022-11-13T21:28:03.785Z,11.75
2022-11-13T21:30:50.061Z,11.65
2022-11-13T21:33:37.814Z,11.74
2022-11-13T21:36:27.001Z,11.81
2022-11-13T21:39:13.383Z,11.81
2022-11-13T21:41:59.653Z,11.81
2022-11-13T21:44:45.908Z,11.89
2022-11-13T21:47:31.664Z,11.90
2022-11-13T21:50:17.659Z,11.83
2022-11-13T21:53:03.465Z,11.85
2022-11-13T21:55:50.330Z,11.87
2022-11-13T21:58:38.115Z,11.75
2022-11-13T22:01:25.538Z,11.73
2022-11-13T22:04:11.698Z,11.93
2022-11-13T22:06:57.815Z,11.86
2022-11-13T22:09:44.941Z,11.71
2022-11-13T22:12:30.816Z,11.68
2022-11-13T22:15:17.055Z,11.65
2022-11-13T22:18:03.136Z,11.70
2022-11-13T22:20:49.315Z,11.70
2022-11-13T22:23:35.613Z,11.81
2022-11-13T22:26:23.824Z,11.77
2022-11-13T22:29:10.316Z,11.73
2022-11-13T22:31:56.436Z,11.79
2022-11-13T22:34:42.047Z,11.92
2022-11-13T22:37:28.440Z,11.91
2022-11-13T22:40:15.601Z,11.90
2022-11-13T22:43:01.590Z,12.04
2022-11-13T22:45:47.488Z,11.87
2022-11-13T22:48:35.800Z,11.88
2022-11-13T22:51:44.000Z,11.88
2022-11-13T22:54:30.161Z,11.66
2022-11-13T22:57:16.246Z,12.01
2022-11-13T23:00:09.119Z,11.92
2022-11-13T23:02:54.634Z,11.88
2022-11-13T23:05:40.610Z,11.93
2022-11-13T23:08:26.496Z,11.87
2022-11-13T23:11:33.210Z,11.79
2022-11-13T23:14:19.312Z,11.95
2022-11-13T23:17:05.482Z,11.79
2022-11-13T23:19:51.496Z,11.78
2022-11-13T23:22:38.008Z,11.61
2022-11-13T23:25:24.482Z,11.43
2022-11-13T23:31:50.909Z,11.34
2022-11-13T23:34:58.570Z,11.44
2022-11-13T23:37:42.831Z,11.32
2022-11-13T23:40:29.287Z,11.44
2022-11-13T23:43:15.169Z,11.34
2022-11-13T23:46:02.142Z,11.41
2022-11-13T23:48:47.898Z,11.52
2022-11-13T23:51:34.012Z,11.47
